^^
Station Historical Data
Daily Summary for June 20, 2017 Units:  English    Metric   Both
« Previous Day
Next Day »
Daily Weekly Monthly Yearly Custom
  High: Low: Average:
Temperature: 82.9 °F 55.2 °F 67 °F
Dew Point: 54.9 °F 48.7 °F 51.8 °F
Humidity: 86 % 34 % 61 %
Wind Speed: 7.0 mph 0.0 mph 2 mph
Wind Gust: 14.0 mph - -
Wind:- - ENE
Pressure: 30.26 in 30.08 in -
Precipitation: 0.00 in    
Historical Graphs
 
 


Weather Camera

Weather Camera




Garrymore Current Conditions

Find more about Weather in Mountmellick, IE
Click for weather forecast
Tabular Data for June 20, 2017
Time Temperature Dew Point Pressure Wind Wind Speed Wind Gust Humidity Rainfall Rate (Hourly) solar Conditions
00:00 61.2 °F 54.9 °F 30.25 in ENE 1.0 mph 8.0 mph 80 % 0.00 in 0.0 W/m2 BKN
00:10 59.5 °F 53.7 °F 30.26 in ENE 1.0 mph 8.0 mph 81 % 0.00 in 0.0 W/m2 BKN
00:15 59.5 °F 53.7 °F 30.26 in ESE 2.0 mph 6.0 mph 81 % 0.00 in 0.0 W/m2 BKN
00:20 59.5 °F 53.7 °F 30.26 in East 1.0 mph 6.0 mph 81 % 0.00 in 0.0 W/m2 BKN
00:30 59.5 °F 53.7 °F 30.26 in East 1.0 mph 3.0 mph 81 % 0.00 in 0.0 W/m2 BKN
00:35 59.5 °F 53.7 °F 30.25 in ENE 1.0 mph 3.0 mph 81 % 0.00 in 0.0 W/m2 BKN
00:40 59.5 °F 53.7 °F 30.25 in ENE 2.0 mph 6.0 mph 81 % 0.00 in 0.0 W/m2 BKN
00:45 59.4 °F 53.5 °F 30.25 in NE 6.0 mph 8.0 mph 81 % 0.00 in 0.0 W/m2 BKN
00:50 59.4 °F 53.5 °F 30.26 in NE 1.0 mph 8.0 mph 81 % 0.00 in 0.0 W/m2 BKN
00:55 59.2 °F 53.4 °F 30.26 in ENE 1.0 mph 5.0 mph 81 % 0.00 in 0.0 W/m2 BKN
01:00 59.2 °F 53.4 °F 30.25 in ENE 2.0 mph 7.0 mph 81 % 0.00 in 0.0 W/m2 BKN
01:10 59.0 °F 53.2 °F 30.25 in East 1.0 mph 3.0 mph 81 % 0.00 in 0.0 W/m2 BKN
01:15 59.0 °F 53.2 °F 30.25 in ENE 3.0 mph 5.0 mph 81 % 0.00 in 0.0 W/m2 BKN
01:20 59.0 °F 53.2 °F 30.26 in East 1.0 mph 6.0 mph 81 % 0.00 in 0.0 W/m2 BKN
01:25 59.0 °F 53.2 °F 30.26 in Calm   5.0 mph 81 % 0.00 in 0.0 W/m2 BKN
01:30 59.0 °F 53.2 °F 30.26 in ENE 1.0 mph 6.0 mph 81 % 0.00 in 0.0 W/m2 BKN
01:35 59.0 °F 53.2 °F 30.26 in Calm   3.0 mph 81 % 0.00 in 0.0 W/m2 BKN
01:40 59.0 °F 53.2 °F 30.25 in ENE 1.0 mph 3.0 mph 81 % 0.00 in 0.0 W/m2 BKN
01:50 58.8 °F 53.3 °F 30.25 in Calm   3.0 mph 82 % 0.00 in 0.0 W/m2 BKN
01:55 58.8 °F 53.3 °F 30.25 in ENE 1.0 mph 4.0 mph 82 % 0.00 in 0.0 W/m2 BKN
02:00 58.8 °F 53.3 °F 30.25 in ENE 1.0 mph 3.0 mph 82 % 0.00 in 0.0 W/m2 BKN
02:05 58.8 °F 53.3 °F 30.25 in ENE 1.0 mph 4.0 mph 82 % 0.00 in 0.0 W/m2 BKN
02:10 58.6 °F 53.2 °F 30.25 in ENE 1.0 mph 4.0 mph 82 % 0.00 in 0.0 W/m2 BKN
02:15 58.6 °F 53.2 °F 30.25 in ENE 1.0 mph 3.0 mph 82 % 0.00 in 0.0 W/m2 BKN
02:20 58.5 °F 53.0 °F 30.25 in ENE 1.0 mph 6.0 mph 82 % 0.00 in 0.0 W/m2 BKN
02:25 58.5 °F 53.0 °F 30.25 in ENE 1.0 mph 6.0 mph 82 % 0.00 in 0.0 W/m2 BKN
02:30 58.5 °F 53.0 °F 30.25 in NE 1.0 mph 7.0 mph 82 % 0.00 in 0.0 W/m2 BKN
02:35 58.5 °F 53.0 °F 30.24 in ENE 2.0 mph 7.0 mph 82 % 0.00 in 0.0 W/m2 BKN
02:40 58.5 °F 53.0 °F 30.24 in East 2.0 mph 8.0 mph 82 % 0.00 in 0.0 W/m2 BKN
02:45 58.3 °F 52.8 °F 30.25 in ENE 3.0 mph 6.0 mph 82 % 0.00 in 0.0 W/m2 BKN
02:50 58.3 °F 53.1 °F 30.25 in NNE 3.0 mph 7.0 mph 83 % 0.00 in 0.0 W/m2 BKN
02:55 58.3 °F 53.1 °F 30.24 in North 3.0 mph 7.0 mph 83 % 0.00 in 0.0 W/m2 BKN
03:00 57.8 °F 52.3 °F 30.25 in North 3.0 mph 6.0 mph 82 % 0.00 in 0.0 W/m2 BKN
03:10 57.2 °F 51.8 °F 30.24 in NNE 5.0 mph 8.0 mph 82 % 0.00 in 0.0 W/m2 BKN
03:20 57.0 °F 51.9 °F 30.24 in North 3.0 mph 6.0 mph 83 % 0.00 in 0.0 W/m2 BKN
03:25 57.0 °F 52.2 °F 30.24 in North 3.0 mph 6.0 mph 84 % 0.00 in 0.0 W/m2 BKN
03:35 56.1 °F 51.4 °F 30.24 in NNE 3.0 mph 7.0 mph 84 % 0.00 in 0.0 W/m2 BKN
03:40 56.1 °F 51.4 °F 30.24 in NE 5.0 mph 7.0 mph 84 % 0.00 in 0.0 W/m2 BKN
03:45 56.1 °F 51.4 °F 30.24 in NE 2.0 mph 7.0 mph 84 % 0.00 in 0.0 W/m2 BKN
03:50 56.1 °F 51.4 °F 30.25 in NE 3.0 mph 7.0 mph 84 % 0.00 in 0.0 W/m2 BKN
03:55 56.1 °F 51.4 °F 30.24 in NE 5.0 mph 8.0 mph 84 % 0.00 in 0.0 W/m2 BKN
04:00 56.1 °F 51.4 °F 30.24 in NNE 6.0 mph 7.0 mph 84 % 0.00 in 0.0 W/m2 BKN
04:05 56.0 °F 51.2 °F 30.25 in NNE 2.0 mph 8.0 mph 84 % 0.00 in 0.0 W/m2 BKN
04:10 55.8 °F 51.0 °F 30.25 in NNE 1.0 mph 7.0 mph 84 % 0.00 in 0.0 W/m2 BKN
04:15 55.8 °F 51.0 °F 30.25 in NNE 2.0 mph 5.0 mph 84 % 0.00 in 0.0 W/m2 BKN
04:20 55.8 °F 51.0 °F 30.25 in NE 1.0 mph 6.0 mph 84 % 0.00 in 0.0 W/m2 BKN
04:30 55.6 °F 50.8 °F 30.24 in NNE 2.0 mph 4.0 mph 84 % 0.00 in 0.0 W/m2 BKN
04:35 55.6 °F 51.1 °F 30.25 in NE 1.0 mph 4.0 mph 85 % 0.00 in 0.0 W/m2 BKN
04:40 55.6 °F 51.1 °F 30.24 in NE 2.0 mph 5.0 mph 85 % 0.00 in 0.0 W/m2 BKN
04:45 55.6 °F 51.1 °F 30.24 in NE 1.0 mph 6.0 mph 85 % 0.00 in 0.0 W/m2 BKN
04:50 55.6 °F 51.1 °F 30.25 in NE 1.0 mph 6.0 mph 85 % 0.00 in 0.0 W/m2 BKN
04:55 55.6 °F 51.1 °F 30.24 in NE 3.0 mph 7.0 mph 85 % 0.00 in 0.0 W/m2 BKN
05:00 55.6 °F 51.1 °F 30.24 in NE 5.0 mph 7.0 mph 85 % 0.00 in 0.0 W/m2 BKN
05:10 55.4 °F 51.0 °F 30.24 in NW 2.0 mph 7.0 mph 85 % 0.00 in 0.0 W/m2 BKN
05:15 55.4 °F 51.0 °F 30.24 in North 3.0 mph 6.0 mph 85 % 0.00 in 0.0 W/m2 BKN
05:20 55.2 °F 51.1 °F 30.25 in NE 3.0 mph 6.0 mph 86 % 0.00 in 0.0 W/m2 BKN
05:25 55.2 °F 51.1 °F 30.25 in NNE 3.0 mph 9.0 mph 86 % 0.00 in 0.0 W/m2 BKN
05:30 55.2 °F 50.8 °F 30.24 in NNE 5.0 mph 7.0 mph 85 % 0.00 in 0.0 W/m2 BKN
05:35 55.2 °F 50.8 °F 30.25 in NNE 3.0 mph 7.0 mph 85 % 0.00 in 0.0 W/m2 BKN
05:40 55.2 °F 50.8 °F 30.24 in NE 3.0 mph 8.0 mph 85 % 0.00 in 0.0 W/m2 BKN
05:45 55.2 °F 50.8 °F 30.24 in ENE 1.0 mph 7.0 mph 85 % 0.00 in 0.0 W/m2 BKN
05:55 55.2 °F 50.8 °F 30.24 in NE 3.0 mph 6.0 mph 85 % 0.00 in 0.0 W/m2 BKN
06:00 55.4 °F 50.3 °F 30.24 in NE 3.0 mph 7.0 mph 83 % 0.00 in 0.0 W/m2 BKN
06:05 55.6 °F 50.5 °F 30.24 in NE 5.0 mph 7.0 mph 83 % 0.00 in 0.0 W/m2 BKN
06:10 55.6 °F 50.2 °F 30.24 in NE 5.0 mph 9.0 mph 82 % 0.00 in 0.0 W/m2 BKN
06:15 55.8 °F 50.0 °F 30.24 in NNE 3.0 mph 9.0 mph 81 % 0.00 in 0.0 W/m2 BKN
06:20 55.8 °F 49.7 °F 30.24 in NNE 3.0 mph 8.0 mph 80 % 0.00 in 0.0 W/m2 BKN
06:25 55.9 °F 49.5 °F 30.24 in NE 1.0 mph 8.0 mph 79 % 0.00 in 0.0 W/m2 BKN
06:30 56.1 °F 49.7 °F 30.25 in NE 3.0 mph 7.0 mph 79 % 0.00 in 0.0 W/m2 BKN
06:35 56.1 °F 49.7 °F 30.24 in NE 3.0 mph 7.0 mph 79 % 0.00 in 0.0 W/m2 BKN
06:40 57.0 °F 50.2 °F 30.24 in NE 2.0 mph 7.0 mph 78 % 0.00 in 0.0 W/m2 BKN
06:45 57.2 °F 50.0 °F 30.24 in NNE 2.0 mph 6.0 mph 77 % 0.00 in 0.0 W/m2 BKN
06:50 57.4 °F 49.9 °F 30.25 in ENE 2.0 mph 6.0 mph 76 % 0.00 in 0.0 W/m2 BKN
06:55 57.4 °F 49.5 °F 30.24 in ENE 3.0 mph 7.0 mph 75 % 0.00 in 0.0 W/m2 BKN
07:00 57.2 °F 49.3 °F 30.24 in NE 2.0 mph 6.0 mph 75 % 0.00 in 0.0 W/m2 BKN
07:05 57.0 °F 49.2 °F 30.25 in ENE 2.0 mph 6.0 mph 75 % 0.00 in 0.0 W/m2 BKN
07:10 57.0 °F 49.5 °F 30.24 in ENE 1.0 mph 8.0 mph 76 % 0.00 in 0.0 W/m2 BKN
07:15 56.1 °F 48.7 °F 30.24 in NE 3.0 mph 8.0 mph 76 % 0.00 in 0.0 W/m2 BKN
07:20 56.1 °F 49.0 °F 30.24 in NNE 3.0 mph 8.0 mph 77 % 0.00 in 0.0 W/m2 BKN
07:25 56.1 °F 49.0 °F 30.24 in NE 3.0 mph 8.0 mph 77 % 0.00 in 0.0 W/m2 BKN
07:30 56.1 °F 49.0 °F 30.24 in ENE 2.0 mph 8.0 mph 77 % 0.00 in 0.0 W/m2 BKN
07:40 57.0 °F 49.9 °F 30.24 in NNE 3.0 mph 8.0 mph 77 % 0.00 in 0.0 W/m2 BKN
07:45 57.0 °F 49.9 °F 30.24 in ENE 3.0 mph 8.0 mph 77 % 0.00 in 0.0 W/m2 BKN
07:50 57.0 °F 49.5 °F 30.25 in East 2.0 mph 10.0 mph 76 % 0.00 in 0.0 W/m2 BKN
07:55 57.0 °F 49.2 °F 30.24 in North 6.0 mph 9.0 mph 75 % 0.00 in 0.0 W/m2 BKN
08:00 57.0 °F 49.2 °F 30.24 in NE 1.0 mph 9.0 mph 75 % 0.00 in 0.0 W/m2 BKN
08:05 57.2 °F 49.0 °F 30.24 in NE 2.0 mph 8.0 mph 74 % 0.00 in 0.0 W/m2 BKN
08:10 57.2 °F 49.0 °F 30.24 in ENE 1.0 mph 8.0 mph 74 % 0.00 in 0.0 W/m2 BKN
08:15 57.6 °F 49.3 °F 30.24 in ENE 3.0 mph 7.0 mph 74 % 0.00 in 0.0 W/m2 BKN
08:20 58.5 °F 49.8 °F 30.24 in North 2.0 mph 7.0 mph 73 % 0.00 in 0.0 W/m2 BKN
08:25 59.2 °F 49.8 °F 30.24 in SE 1.0 mph 6.0 mph 71 % 0.00 in 0.0 W/m2 BKN
08:30 59.9 °F 50.1 °F 30.24 in ESE 3.0 mph 9.0 mph 70 % 0.00 in 0.0 W/m2 BKN
08:35 60.3 °F 50.0 °F 30.24 in ESE 1.0 mph 9.0 mph 69 % 0.00 in 0.0 W/m2 BKN
08:40 61.0 °F 50.3 °F 30.24 in ESE 1.0 mph 8.0 mph 68 % 0.00 in 0.0 W/m2 BKN
08:45 61.9 °F 50.4 °F 30.24 in East 1.0 mph 6.0 mph 66 % 0.00 in 0.0 W/m2 BKN
08:50 64.0 °F 51.6 °F 30.24 in NNE 2.0 mph 8.0 mph 64 % 0.00 in 0.0 W/m2 BKN
08:55 64.4 °F 51.1 °F 30.24 in ENE 1.0 mph 8.0 mph 62 % 0.00 in 0.0 W/m2 BKN
09:00 64.6 °F 51.3 °F 30.24 in East 1.0 mph 6.0 mph 62 % 0.00 in 0.0 W/m2 BKN
09:10 65.8 °F 52.0 °F 30.25 in ENE 6.0 mph 10.0 mph 61 % 0.00 in 0.0 W/m2 BKN
09:15 65.7 °F 51.4 °F 30.25 in NE 2.0 mph 8.0 mph 60 % 0.00 in 0.0 W/m2 BKN
09:20 65.8 °F 51.1 °F 30.24 in ENE 1.0 mph 5.0 mph 59 % 0.00 in 0.0 W/m2 BKN
09:25 66.4 °F 51.1 °F 30.24 in ENE 2.0 mph 7.0 mph 58 % 0.00 in 0.0 W/m2 BKN
09:30 66.7 °F 51.0 °F 30.24 in ENE 1.0 mph 7.0 mph 57 % 0.00 in 0.0 W/m2 BKN
09:35 67.1 °F 51.4 °F 30.24 in ENE 3.0 mph 7.0 mph 57 % 0.00 in 0.0 W/m2 BKN
09:40 67.6 °F 51.4 °F 30.25 in ENE 5.0 mph 9.0 mph 56 % 0.00 in 0.0 W/m2 BKN
09:45 68.0 °F 50.7 °F 30.24 in NNE 6.0 mph 9.0 mph 54 % 0.00 in 0.0 W/m2 BKN
09:50 67.8 °F 51.1 °F 30.24 in NNE 5.0 mph 9.0 mph 55 % 0.00 in 0.0 W/m2 BKN
09:55 67.5 °F 51.2 °F 30.24 in NE 2.0 mph 9.0 mph 56 % 0.00 in 0.0 W/m2 BKN
10:00 67.8 °F 51.5 °F 30.23 in ENE 3.0 mph 6.0 mph 56 % 0.00 in 0.0 W/m2 BKN
10:10 68.9 °F 51.6 °F 30.23 in ENE 2.0 mph 7.0 mph 54 % 0.00 in 0.0 W/m2 BKN
10:15 69.3 °F 51.9 °F 30.23 in East 2.0 mph 7.0 mph 54 % 0.00 in 0.0 W/m2 BKN
10:20 69.4 °F 51.6 °F 30.23 in ENE 2.0 mph 6.0 mph 53 % 0.00 in 0.0 W/m2 SCT
10:25 69.6 °F 51.7 °F 30.23 in ENE 2.0 mph 8.0 mph 53 % 0.00 in 0.0 W/m2 SCT
10:30 69.8 °F 51.4 °F 30.23 in ESE 6.0 mph 12.0 mph 52 % 0.00 in 0.0 W/m2 SCT
10:35 70.0 °F 51.5 °F 30.22 in East 7.0 mph 12.0 mph 52 % 0.00 in 0.0 W/m2 SCT
10:40 70.1 °F 51.7 °F 30.22 in ENE 3.0 mph 9.0 mph 52 % 0.00 in 0.0 W/m2 SCT
10:45 70.3 °F 51.9 °F 30.22 in ENE 1.0 mph 9.0 mph 52 % 0.00 in 0.0 W/m2 SCT
10:50 70.7 °F 52.2 °F 30.22 in NE 2.0 mph 7.0 mph 52 % 0.00 in 0.0 W/m2 SCT
11:00 70.9 °F 52.4 °F 30.22 in NE 3.0 mph 10.0 mph 52 % 0.00 in 0.0 W/m2 SCT
11:05 70.9 °F 52.4 °F 30.22 in NW 2.0 mph 8.0 mph 52 % 0.00 in 0.0 W/m2 SCT
11:10 71.2 °F 52.2 °F 30.22 in NW 5.0 mph 7.0 mph 51 % 0.00 in 0.0 W/m2 SCT
11:20 71.8 °F 53.7 °F 30.22 in NE 3.0 mph 6.0 mph 53 % 0.00 in 0.0 W/m2 SCT
11:25 72.3 °F 53.7 °F 30.21 in ENE 2.0 mph 6.0 mph 52 % 0.00 in 0.0 W/m2 SCT
11:30 72.5 °F 53.9 °F 30.22 in East 1.0 mph 7.0 mph 52 % 0.00 in 0.0 W/m2 SCT
11:35 72.7 °F 53.5 °F 30.22 in ENE 1.0 mph 8.0 mph 51 % 0.00 in 0.0 W/m2 SCT
11:40 73.2 °F 54.5 °F 30.22 in ENE 1.0 mph 8.0 mph 52 % 0.00 in 0.0 W/m2 SCT
11:45 73.8 °F 53.4 °F 30.22 in NE 6.0 mph 12.0 mph 49 % 0.00 in 0.0 W/m2 SCT
11:50 73.6 °F 53.8 °F 30.21 in NNE 3.0 mph 12.0 mph 50 % 0.00 in 0.0 W/m2 SCT
11:55 73.8 °F 52.8 °F 30.22 in NNE 1.0 mph 7.0 mph 48 % 0.00 in 0.0 W/m2 SCT
12:00 73.9 °F 53.0 °F 30.22 in SE 1.0 mph 7.0 mph 48 % 0.00 in 0.0 W/m2 SCT
12:10 75.0 °F 52.8 °F 30.22 in NE 3.0 mph 6.0 mph 46 % 0.00 in 0.0 W/m2 SCT
12:20 75.6 °F 52.1 °F 30.21 in NE 1.0 mph 6.0 mph 44 % 0.00 in 0.0 W/m2 SCT
12:25 75.7 °F 52.3 °F 30.22 in NE 2.0 mph 8.0 mph 44 % 0.00 in 0.0 W/m2 SCT
12:30 75.9 °F 52.4 °F 30.20 in NE 2.0 mph 5.0 mph 44 % 0.00 in 0.0 W/m2 SCT
12:35 75.9 °F 52.4 °F 30.21 in ENE 5.0 mph 8.0 mph 44 % 0.00 in 0.0 W/m2 SCT
12:40 75.9 °F 52.4 °F 30.21 in ENE 1.0 mph 8.0 mph 44 % 0.00 in 0.0 W/m2 SCT
12:45 75.9 °F 51.2 °F 30.21 in NNE 5.0 mph 10.0 mph 42 % 0.00 in 0.0 W/m2 SCT
12:50 75.9 °F 51.8 °F 30.21 in NNE 5.0 mph 12.0 mph 43 % 0.00 in 0.0 W/m2 SCT
12:55 75.9 °F 52.4 °F 30.21 in ENE 3.0 mph 8.0 mph 44 % 0.00 in 0.0 W/m2 SCT
13:00 75.9 °F 52.4 °F 30.21 in ENE 2.0 mph 8.0 mph 44 % 0.00 in 0.0 W/m2 SCT
13:05 75.9 °F 51.8 °F 30.19 in ENE 3.0 mph 8.0 mph 43 % 0.00 in 0.0 W/m2 SCT
13:10 75.9 °F 52.4 °F 30.20 in ENE 2.0 mph 7.0 mph 44 % 0.00 in 0.0 W/m2 SCT
13:15 77.4 °F 51.8 °F 30.21 in NE 5.0 mph 8.0 mph 41 % 0.00 in 0.0 W/m2 SCT
13:20 77.4 °F 52.5 °F 30.20 in ENE 1.0 mph 9.0 mph 42 % 0.00 in 0.0 W/m2 SCT
13:25 77.4 °F 52.5 °F 30.20 in ESE 3.0 mph 6.0 mph 42 % 0.00 in 0.0 W/m2 SCT
13:30 77.5 °F 52.6 °F 30.20 in East 1.0 mph 6.0 mph 42 % 0.00 in 0.0 W/m2 SCT
13:35 77.9 °F 52.3 °F 30.20 in NE 6.0 mph 7.0 mph 41 % 0.00 in 0.0 W/m2 SCT
13:45 77.9 °F 52.3 °F 30.20 in North 3.0 mph 9.0 mph 41 % 0.00 in 0.0 W/m2 SCT
13:50 77.9 °F 52.3 °F 30.20 in NNE 2.0 mph 8.0 mph 41 % 0.00 in 0.0 W/m2 BKN
13:55 77.9 °F 51.6 °F 30.19 in NE 2.0 mph 8.0 mph 40 % 0.00 in 0.0 W/m2 BKN
14:00 77.4 °F 51.8 °F 30.19 in NNE 3.0 mph 10.0 mph 41 % 0.00 in 0.0 W/m2 BKN
14:10 78.1 °F 53.1 °F 30.19 in NE 6.0 mph 9.0 mph 42 % 0.00 in 0.0 W/m2 BKN
14:15 78.4 °F 53.4 °F 30.19 in NNE 2.0 mph 9.0 mph 42 % 0.00 in 0.0 W/m2 BKN
14:20 78.8 °F 53.8 °F 30.19 in NE 3.0 mph 10.0 mph 42 % 0.00 in 0.0 W/m2 BKN
14:25 79.3 °F 53.6 °F 30.19 in NNE 7.0 mph 14.0 mph 41 % 0.00 in 0.0 W/m2 BKN
14:30 78.6 °F 53.6 °F 30.18 in North 3.0 mph 14.0 mph 42 % 0.00 in 0.0 W/m2 BKN
14:35 78.6 °F 53.6 °F 30.18 in North 3.0 mph 8.0 mph 42 % 0.00 in 0.0 W/m2 BKN
14:40 79.3 °F 53.6 °F 30.18 in NE 6.0 mph 8.0 mph 41 % 0.00 in 0.0 W/m2 BKN
14:45 79.5 °F 53.8 °F 30.17 in NNE 3.0 mph 9.0 mph 41 % 0.00 in 0.0 W/m2 BKN
14:50 79.9 °F 54.1 °F 30.17 in NNE 2.0 mph 8.0 mph 41 % 0.00 in 0.0 W/m2 BKN
14:55 80.4 °F 53.9 °F 30.17 in NE 5.0 mph 9.0 mph 40 % 0.00 in 0.0 W/m2 BKN
15:00 80.6 °F 54.0 °F 30.17 in NE 3.0 mph 9.0 mph 40 % 0.00 in 0.0 W/m2 BKN
15:10 80.8 °F 53.5 °F 30.16 in ENE 3.0 mph 8.0 mph 39 % 0.00 in 0.0 W/m2 BKN
15:15 81.1 °F 54.5 °F 30.16 in ENE 3.0 mph 8.0 mph 40 % 0.00 in 0.0 W/m2 BKN
15:20 81.7 °F 54.3 °F 30.15 in NE 6.0 mph 8.0 mph 39 % 0.00 in 0.0 W/m2 BKN
15:25 81.7 °F 54.3 °F 30.15 in NE 3.0 mph 8.0 mph 39 % 0.00 in 0.0 W/m2 BKN
15:30 81.9 °F 53.8 °F 30.16 in ENE 2.0 mph 6.0 mph 38 % 0.00 in 0.0 W/m2 BKN
15:35 82.2 °F 54.1 °F 30.15 in ENE 2.0 mph 6.0 mph 38 % 0.00 in 0.0 W/m2 BKN
15:40 82.4 °F 52.8 °F 30.15 in ESE 3.0 mph 8.0 mph 36 % 0.00 in 0.0 W/m2 BKN
15:50 82.4 °F 52.8 °F 30.16 in East 1.0 mph 6.0 mph 36 % 0.00 in 0.0 W/m2 BKN
15:55 82.6 °F 52.9 °F 30.15 in East 1.0 mph 4.0 mph 36 % 0.00 in 0.0 W/m2 BKN
16:00 82.9 °F 53.2 °F 30.15 in ESE 1.0 mph 6.0 mph 36 % 0.00 in 0.0 W/m2 BKN
16:10 82.6 °F 52.2 °F 30.14 in ESE 3.0 mph 6.0 mph 35 % 0.00 in 0.0 W/m2 BKN
16:15 81.7 °F 52.1 °F 30.14 in East 1.0 mph 7.0 mph 36 % 0.00 in 0.0 W/m2 BKN
16:20 80.6 °F 51.9 °F 30.14 in ESE 1.0 mph 7.0 mph 37 % 0.00 in 0.0 W/m2 BKN
16:25 79.7 °F 52.6 °F 30.14 in ESE 1.0 mph 6.0 mph 39 % 0.00 in 0.0 W/m2 BKN
16:30 78.5 °F 52.8 °F 30.13 in ESE 1.0 mph 4.0 mph 41 % 0.00 in 0.0 W/m2 BKN
16:35 78.3 °F 52.6 °F 30.14 in ESE 1.0 mph 4.0 mph 41 % 0.00 in 0.0 W/m2 BKN
16:40 78.1 °F 52.5 °F 30.14 in ENE 1.0 mph 4.0 mph 41 % 0.00 in 0.0 W/m2 BKN
16:45 77.6 °F 52.0 °F 30.14 in NNW 1.0 mph 7.0 mph 41 % 0.00 in 0.0 W/m2 BKN
16:50 77.5 °F 52.0 °F 30.14 in SE 2.0 mph 6.0 mph 41 % 0.00 in 0.0 W/m2 BKN
16:55 76.1 °F 52.0 °F 30.13 in East 2.0 mph 6.0 mph 43 % 0.00 in 0.0 W/m2 BKN
17:00 77.5 °F 52.6 °F 30.14 in East 3.0 mph 6.0 mph 42 % 0.00 in 0.0 W/m2 BKN
17:05 77.5 °F 52.6 °F 30.14 in South 1.0 mph 6.0 mph 42 % 0.00 in 0.0 W/m2 BKN
17:10 79.7 °F 51.8 °F 30.14 in WSW 3.0 mph 5.0 mph 38 % 0.00 in 0.0 W/m2 BKN
17:15 80.8 °F 51.3 °F 30.15 in SE 1.0 mph 6.0 mph 36 % 0.00 in 0.0 W/m2 BKN
17:20 81.1 °F 52.4 °F 30.14 in ESE 1.0 mph 6.0 mph 37 % 0.00 in 0.0 W/m2 BKN
17:25 82.0 °F 52.4 °F 30.15 in ESE 1.0 mph 4.0 mph 36 % 0.00 in 0.0 W/m2 BKN
17:30 82.4 °F 51.2 °F 30.15 in ENE 1.0 mph 3.0 mph 34 % 0.00 in 0.0 W/m2 BKN
17:35 81.9 °F 51.5 °F 30.16 in East 1.0 mph 4.0 mph 35 % 0.00 in 0.0 W/m2 BKN
17:40 81.0 °F 51.5 °F 30.15 in East 1.0 mph 3.0 mph 36 % 0.00 in 0.0 W/m2 BKN
17:45 80.1 °F 52.2 °F 30.15 in East 1.0 mph 3.0 mph 38 % 0.00 in 0.0 W/m2 BKN
17:50 79.7 °F 52.5 °F 30.15 in East 1.0 mph 4.0 mph 39 % 0.00 in 0.0 W/m2 BKN
17:55 79.5 °F 52.4 °F 30.15 in ENE 1.0 mph 4.0 mph 39 % 0.00 in 0.0 W/m2 BKN
18:00 80.1 °F 53.6 °F 30.15 in NE 1.0 mph 5.0 mph 40 % 0.00 in 0.0 W/m2 BKN
18:10 81.0 °F 52.2 °F 30.14 in NE 6.0 mph 8.0 mph 37 % 0.00 in 0.0 W/m2 BKN
18:15 80.4 °F 52.5 °F 30.15 in NE 1.0 mph 8.0 mph 38 % 0.00 in 0.0 W/m2 BKN
18:20 79.9 °F 51.3 °F 30.15 in ENE 2.0 mph 8.0 mph 37 % 0.00 in 0.0 W/m2 BKN
18:25 79.7 °F 51.8 °F 30.15 in ENE 3.0 mph 6.0 mph 38 % 0.00 in 0.0 W/m2 BKN
18:30 79.5 °F 51.7 °F 30.14 in NE 3.0 mph 7.0 mph 38 % 0.00 in 0.0 W/m2 BKN
18:35 78.7 °F 51.6 °F 30.14 in NE 3.0 mph 7.0 mph 39 % 0.00 in 0.0 W/m2 BKN
18:40 77.9 °F 50.9 °F 30.13 in ENE 2.0 mph 6.0 mph 39 % 0.00 in 0.0 W/m2 BKN
18:45 76.2 °F 51.4 °F 30.13 in ENE 2.0 mph 7.0 mph 42 % 0.00 in 0.0 W/m2 BKN
18:50 75.9 °F 51.8 °F 30.13 in ENE 1.0 mph 8.0 mph 43 % 0.00 in 0.0 W/m2 OVC
18:55 75.9 °F 52.4 °F 30.13 in East 1.0 mph 8.0 mph 44 % 0.00 in 0.0 W/m2 OVC
19:00 75.2 °F 51.8 °F 30.13 in ENE 2.0 mph 7.0 mph 44 % 0.00 in 0.0 W/m2 OVC
19:05 75.2 °F 52.4 °F 30.12 in NE 1.0 mph 6.0 mph 45 % 0.00 in 0.0 W/m2 OVC
19:10 74.1 °F 53.2 °F 30.11 in ENE 1.0 mph 6.0 mph 48 % 0.00 in 0.0 W/m2 OVC
19:15 73.6 °F 53.2 °F 30.12 in East 1.0 mph 6.0 mph 49 % 0.00 in 0.0 W/m2 OVC
19:20 73.2 °F 54.5 °F 30.12 in Calm   2.0 mph 52 % 0.00 in 0.0 W/m2 OVC
19:25 72.9 °F 54.2 °F 30.11 in East 1.0 mph 5.0 mph 52 % 0.00 in 0.0 W/m2 OVC
19:30 72.3 °F 53.7 °F 30.11 in ESE 1.0 mph 6.0 mph 52 % 0.00 in 0.0 W/m2 OVC
19:35 71.6 °F 53.0 °F 30.11 in ENE 1.0 mph 6.0 mph 52 % 0.00 in 0.0 W/m2 OVC
19:40 71.2 °F 51.6 °F 30.11 in ESE 1.0 mph 6.0 mph 50 % 0.00 in 0.0 W/m2 OVC
19:45 70.7 °F 51.7 °F 30.11 in SE 1.0 mph 5.0 mph 51 % 0.00 in 0.0 W/m2 OVC
19:50 70.5 °F 51.5 °F 30.10 in ENE 1.0 mph 5.0 mph 51 % 0.00 in 0.0 W/m2 OVC
19:55 70.3 °F 51.3 °F 30.10 in Calm   6.0 mph 51 % 0.00 in 0.0 W/m2 OVC
20:00 70.2 °F 51.2 °F 30.10 in SE 2.0 mph 6.0 mph 51 % 0.00 in 0.0 W/m2 OVC
20:05 69.6 °F 51.2 °F 30.09 in East 2.0 mph 6.0 mph 52 % 0.00 in 0.0 W/m2 OVC
20:10 69.4 °F 51.0 °F 30.09 in East 1.0 mph 5.0 mph 52 % 0.00 in 0.0 W/m2 OVC
20:15 69.1 °F 50.7 °F 30.09 in East 1.0 mph 5.0 mph 52 % 0.00 in 0.0 W/m2 OVC
20:20 68.9 °F 50.5 °F 30.09 in SE 1.0 mph 4.0 mph 52 % 0.00 in 0.0 W/m2 OVC
20:25 68.6 °F 50.2 °F 30.10 in ESE 2.0 mph 7.0 mph 52 % 0.00 in 0.0 W/m2 OVC
20:30 68.4 °F 50.0 °F 30.11 in ESE 2.0 mph 6.0 mph 52 % 0.00 in 0.0 W/m2 OVC
20:35 68.0 °F 49.7 °F 30.11 in Calm   3.0 mph 52 % 0.00 in 0.0 W/m2 OVC
20:40 67.8 °F 50.6 °F 30.10 in ESE 1.0 mph 6.0 mph 54 % 0.00 in 0.0 W/m2 OVC
20:45 67.5 °F 50.7 °F 30.09 in Calm   4.0 mph 55 % 0.00 in 0.0 W/m2 OVC
20:50 67.3 °F 51.0 °F 30.09 in NE 1.0 mph 3.0 mph 56 % 0.00 in 0.0 W/m2 OVC
20:55 67.3 °F 51.5 °F 30.10 in Calm   2.0 mph 57 % 0.00 in 0.0 W/m2 OVC
21:00 67.3 °F 52.0 °F 30.09 in ENE 1.0 mph 3.0 mph 58 % 0.00 in 0.0 W/m2 OVC
21:05 67.1 °F 51.8 °F 30.09 in ENE 2.0 mph 3.0 mph 58 % 0.00 in 0.0 W/m2 OVC
21:10 66.9 °F 51.7 °F 30.09 in NE 1.0 mph 3.0 mph 58 % 0.00 in 0.0 W/m2 OVC
21:15 66.6 °F 51.3 °F 30.09 in Calm   3.0 mph 58 % 0.00 in 0.0 W/m2 OVC
21:20 66.2 °F 51.4 °F 30.09 in ENE 1.0 mph 2.0 mph 59 % 0.00 in 0.0 W/m2 OVC
21:25 65.7 °F 51.9 °F 30.09 in Calm   2.0 mph 61 % 0.00 in 0.0 W/m2 OVC
21:30 65.5 °F 51.7 °F 30.08 in Calm   2.0 mph 61 % 0.00 in 0.0 W/m2 OVC
21:35 65.1 °F 51.8 °F 30.09 in Calm   1.0 mph 62 % 0.00 in 0.0 W/m2 OVC
21:40 64.8 °F 51.4 °F 30.09 in Calm   2.0 mph 62 % 0.00 in 0.0 W/m2 OVC
21:45 64.4 °F 51.1 °F 30.09 in Calm   1.0 mph 62 % 0.00 in 0.0 W/m2 OVC
21:50 64.0 °F 51.6 °F 30.09 in Calm   1.0 mph 64 % 0.00 in 0.0 W/m2 BKN
21:55 63.7 °F 51.7 °F 30.09 in Calm   2.0 mph 65 % 0.00 in 0.0 W/m2 BKN
22:00 63.5 °F 51.5 °F 30.09 in Calm   2.0 mph 65 % 0.00 in 0.0 W/m2 BKN
22:10 63.0 °F 51.4 °F 30.08 in Calm   2.0 mph 66 % 0.00 in 0.0 W/m2 BKN
22:15 62.8 °F 51.7 °F 30.08 in ENE 2.0 mph 6.0 mph 67 % 0.00 in 0.0 W/m2 BKN
22:20 62.6 °F 51.5 °F 30.08 in ENE 1.0 mph 6.0 mph 67 % 0.00 in 0.0 W/m2 BKN
22:25 62.4 °F 51.7 °F 30.08 in East 1.0 mph 4.0 mph 68 % 0.00 in 0.0 W/m2 BKN
22:30 62.1 °F 51.4 °F 30.08 in Calm   3.0 mph 68 % 0.00 in 0.0 W/m2 BKN
22:35 62.1 °F 51.4 °F 30.08 in ENE 1.0 mph 2.0 mph 68 % 0.00 in 0.0 W/m2 BKN
22:40 61.9 °F 51.2 °F 30.08 in Calm   1.0 mph 68 % 0.00 in 0.0 W/m2 BKN
22:45 61.7 °F 51.0 °F 30.09 in Calm   1.0 mph 68 % 0.00 in 0.0 W/m2 BKN
22:50 61.5 °F 50.9 °F 30.09 in Calm   1.0 mph 68 % 0.00 in 0.0 W/m2 BKN
22:55 61.3 °F 50.7 °F 30.09 in Calm   1.0 mph 68 % 0.00 in 0.0 W/m2 BKN
23:00 61.2 °F 50.5 °F 30.08 in Calm   1.0 mph 68 % 0.00 in 0.0 W/m2 BKN
23:10 60.8 °F 50.6 °F 30.09 in Calm   1.0 mph 69 % 0.00 in 0.0 W/m2 BKN
23:15 60.8 °F 50.6 °F 30.10 in East 1.0 mph 2.0 mph 69 % 0.00 in 0.0 W/m2 BKN
23:20 59.2 °F 49.4 °F 30.10 in Calm   1.0 mph 70 % 0.00 in 0.0 W/m2 BKN
23:25 59.0 °F 49.6 °F 30.10 in Calm   1.0 mph 71 % 0.00 in 0.0 W/m2 BKN
23:30 58.8 °F 49.8 °F 30.10 in Calm   1.0 mph 72 % 0.00 in 0.0 W/m2 BKN
23:35 58.6 °F 49.6 °F 30.10 in Calm     72 % 0.00 in 0.0 W/m2 BKN
23:40 58.5 °F 49.5 °F 30.09 in Calm   2.0 mph 72 % 0.00 in 0.0 W/m2 BKN
23:45 58.3 °F 49.7 °F 30.09 in Calm     73 % 0.00 in 0.0 W/m2 BKN
23:50 58.1 °F 49.9 °F 30.08 in Calm   1.0 mph 74 % 0.00 in 0.0 W/m2 BKN
23:55 57.6 °F 49.3 °F 30.09 in Calm   1.0 mph 74 % 0.00 in 0.0 W/m2 BKN
Garrymore Weather Station, Geashill, Tullamore, Offaly, Ireland
Compliments of Weather Underground - 2.25 mb